Flight Track Log - Related Links

Times and Time Zones

All times are in EDT time to prevent confusion due to time zone crossing. See the N1172K flight status page for this flight to view local times or setup timezone preferences in your user account.

Time Position Orientation Groundspeed Altitude Reporting Facility
EDT Latitude Longitude Course Direction KTS MPH feet Rate Location/Type
Thu 04:22:44 PM 41.6642 -73.8600 51° Northeast 104 120 3,000  Level Boston Center
Thu 04:23:44 PM 41.6811 -73.8244 57° Northeast 104 120 3,900 900 Climbing Boston Center
Thu 04:24:44 PM 41.7003 -73.7914 52° Northeast 104 120 4,800 950 Climbing Boston Center
Thu 04:25:44 PM 41.7194 -73.7639 47° Northeast 104 120 5,800 850 Climbing Boston Center
Thu 04:26:00 PM 41.7591 -73.6515 51° Northeast  Level FlightAware Approximate
Thu 04:26:44 PM 41.7386 -73.7308 52° Northeast 104 120 6,500  Level Boston Center
Thu 04:27:00 PM 41.7826 -73.6124 51° Northeast  Level FlightAware Approximate
Thu 04:27:44 PM 41.7578 -73.7008 49° Northeast 105 121 7,200  Level Boston Center
Thu 04:28:44 PM 41.7789 -73.6650 52° Northeast 111 128 7,200  Level Boston Center
Thu 04:29:44 PM 41.8025 -73.6181 56° Northeast 130 150 7,200  Level Boston Center
Thu 04:30:44 PM 41.8258 -73.5739 55° Northeast 142 163 7,200  Level Boston Center
Thu 04:31:44 PM 41.8492 -73.5269 56° Northeast 147 169 7,200  Level Boston Center
Thu 04:32:38 PM 41.8703 -73.4883 54° Northeast 145 167 7,200  Level Boston Center
Thu 04:33:33 PM 41.8958 -73.4497 48° Northeast 154 177 7,200  Level Boston Center
Thu 04:34:40 PM 41.9231 -73.4083 49° Northeast 134 154 7,200  Level Boston Center
Thu 04:35:44 PM 41.9547 -73.3614 48° Northeast 141 162 7,200  Level Boston Center
Thu 04:36:41 PM 41.9803 -73.3225 49° Northeast 156 180 7,200  Level Boston Center
Thu 04:37:24 PM 42.0033 -73.2894 47° Northeast 153 176 7,200  Level Boston Center
Thu 04:37:44 PM 42.0117 -73.2839 26° Northeast 158 182 7,200  Level Boston Center
Thu 04:38:19 PM 42.0286 -73.2589 48° Northeast 150 173 7,200  Level Boston Center
Thu 04:38:44 PM 42.0433 -73.2397 44° Northeast 148 170 7,200  Level Boston Center
Thu 04:39:19 PM 42.0581 -73.2147 52° Northeast 150 173 7,200  Level Boston Center
Thu 04:39:44 PM 42.0686 -73.2036 38° Northeast 143 165 7,200  Level Boston Center
Thu 04:41:00 PM 42.1031 -73.1533 47° Northeast  Level FlightAware Approximate
Thu 04:44:24 PM 42.2072 -73.0147 42° Northeast 151 174 7,200  Level Boston Center
Thu 04:44:44 PM 42.2197 -72.9981 45° Northeast 150 173 7,200  Level Boston Center
Thu 04:45:44 PM 42.2450 -72.9533 46° Northeast 168 193 7,200  Level Boston Center
Thu 04:46:00 PM 42.2603 -72.9568 37° Northeast  Level FlightAware Approximate
Thu 04:46:44 PM 42.2764 -72.9058 48° Northeast 161 185 7,200  Level Boston Center
Thu 04:47:44 PM 42.3017 -72.8725 44° Northeast 150 173 7,200  Level Boston Center
Thu 04:48:00 PM 42.3109 -72.8998 42° Northeast  Level FlightAware Approximate
Thu 04:48:44 PM 42.3331 -72.8275 47° Northeast 145 167 7,200  Level Boston Center
Thu 04:49:00 PM 42.3407 -72.8634 42° Northeast  Level FlightAware Approximate
Thu 04:49:44 PM 42.3561 -72.7914 49° Northeast 145 167 7,200  Level Boston Center
Thu 04:50:44 PM 42.3875 -72.7464 47° Northeast 145 167 7,200  Level Boston Center
Thu 04:51:44 PM 42.4147 -72.7100 45° Northeast 145 167 7,200  Level Boston Center
Thu 04:52:44 PM 42.4419 -72.6681 49° Northeast 145 167 7,200  Level Boston Center
Thu 04:53:00 PM 42.4688 -72.7004 46° Northeast  Level FlightAware Approximate
Thu 04:53:44 PM 42.4711 -72.6314 43° Northeast 145 167 7,200  Level Boston Center
Thu 04:54:44 PM 42.5003 -72.5922 45° Northeast 145 167 7,200  Level Boston Center
Thu 04:55:44 PM 42.5317 -72.5583 39° Northeast 140 161 7,200  Level Boston Center
Thu 04:56:44 PM 42.5650 -72.5275 34° Northeast 135 155 7,200  Level Boston Center
Thu 04:57:44 PM 42.6006 -72.5022 28° Northeast 135 155 7,200  Level Boston Center
Thu 04:58:44 PM 42.6358 -72.4739 31° Northeast 135 155 7,200  Level Boston Center
Thu 04:59:44 PM 42.6714 -72.4486 28° Northeast 140 161 7,200  Level Boston Center
Thu 05:00:44 PM 42.7089 -72.4203 29° Northeast 140 161 7,200 -50 Level Boston Center
Thu 05:01:44 PM 42.7422 -72.3950 29° Northeast 140 161 7,100 -50 Descending Boston Center
Thu 05:02:44 PM 42.7775 -72.3694 28° Northeast 140 161 7,100  Level Boston Center
Thu 05:03:44 PM 42.8131 -72.3383 33° Northeast 140 161 7,100  Level Boston Center
Thu 05:04:44 PM 42.8506 -72.3014 36° Northeast 145 167 7,100 100 Level Boston Center
Thu 05:05:44 PM 42.8858 -72.2644 37° Northeast 150 173 7,300 100 Climbing Boston Center
Thu 05:06:44 PM 42.9192 -72.2303 37° Northeast 150 173 7,300  Level Boston Center
Thu 05:07:44 PM 42.9442 -72.2103 30° Northeast 150 173 7,300 -50 Level Boston Center
Thu 05:08:44 PM 42.9900 -72.1647 36° Northeast 150 173 7,200 -200 Descending Boston Center
Thu 05:09:44 PM 43.0253 -72.1278 37° Northeast 150 173 6,900 -100 Descending Boston Center
Thu 05:10:44 PM 43.0583 -72.0964 35° Northeast 150 173 7,000 50 Climbing Boston Center
Thu 05:11:44 PM 43.0939 -72.0619 35° Northeast 150 173 7,000  Level Boston Center
Thu 05:12:44 PM 43.1292 -72.0333 31° Northeast 150 173 7,000  Level Boston Center
Thu 05:13:44 PM 43.1644 -72.0075 28° Northeast 145 167 7,000  Level Boston Center
Thu 05:14:44 PM 43.1997 -71.9817 28° Northeast 140 161 7,000  Level Boston Center
Thu 05:15:44 PM 43.2372 -71.9500 32° Northeast 140 161 7,000  Level Boston Center
Thu 05:16:44 PM 43.2725 -71.9239 28° Northeast 140 161 7,000  Level Boston Center
Thu 05:17:44 PM 43.3036 -71.8953 34° Northeast 140 161 7,000  Level Boston Center
Thu 05:18:44 PM 43.3450 -71.8606 31° Northeast 140 161 7,000  Level Boston Center
Thu 05:20:40 PM 43.4167 -71.8000 32° Northeast 154 177 7,000 102 Level KA90
Thu 05:21:40 PM 43.4500 -71.7667 36° Northeast 148 170 7,300 79 Climbing KA90
Thu 05:21:56 PM 43.4572 -71.7650 10° North 146 168 7,100 158 Descending Boston Center
Thu 05:22:56 PM 43.4861 -71.7419 30° Northeast 134 154 7,500 200 Climbing Boston Center
Thu 05:23:56 PM 43.5233 -71.7128 30° Northeast 140 161 7,500  Level Boston Center
Thu 05:24:56 PM 43.5567 -71.6894 27° Northeast 160 184 7,500  Level Boston Center
Thu 05:25:56 PM 43.5981 -71.6631 25° Northeast 154 177 7,500  Level Boston Center
Thu 05:26:56 PM 43.6292 -71.6397 28° Northeast 154 177 7,500  Level Boston Center
Thu 05:27:56 PM 43.6667 -71.6136 27° Northeast 154 177 7,500  Level Boston Center
Thu 05:29:08 PM 43.7017 -71.5814 34° Northeast 149 171 7,500  Level Boston Center
Thu 05:30:08 PM 43.7433 -71.5492 29° Northeast 144 166 7,500  Level Boston Center
Thu 05:31:08 PM 43.7806 -71.5169 32° Northeast 144 166 7,500  Level Boston Center
Thu 05:32:08 PM 43.8156 -71.4906 29° Northeast 138 159 7,500  Level Boston Center
Thu 05:33:08 PM 43.8531 -71.4611 30° Northeast 138 159 7,500  Level Boston Center
Thu 05:34:08 PM 43.8797 -71.4406 29° Northeast 138 159 7,500  Level Boston Center
Thu 05:35:08 PM 43.9211 -71.3994 36° Northeast 143 165 7,500 50 Level Boston Center
Thu 05:36:08 PM 43.9519 -71.3644 39° Northeast 143 165 7,600 45 Climbing Boston Center
Thu 05:37:20 PM 43.9892 -71.3319 32° Northeast 148 170 7,600  Level Boston Center
Thu 05:38:20 PM 44.0283 -71.2881 39° Northeast 148 170 7,600  Level Boston Center
Thu 05:39:20 PM 44.0614 -71.2586 33° Northeast 143 165 7,600  Level Boston Center
Thu 05:40:20 PM 44.0925 -71.2231 39° Northeast 143 165 7,600  Level Boston Center
Thu 05:41:20 PM 44.1233 -71.1878 39° Northeast 143 165 7,600  Level Boston Center
Thu 05:42:20 PM 44.1564 -71.1583 33° Northeast 143 165 7,600  Level Boston Center
Thu 05:43:20 PM 44.1833 -71.1461 18° North 143 165 7,600  Level Boston Center
Thu 05:44:20 PM 44.2225 -71.1161 29° Northeast 133 153 7,600  Level Boston Center
Thu 05:45:20 PM 44.2597 -71.0864 30° Northeast 133 153 7,600  Level Boston Center
Thu 05:46:20 PM 44.2906 -71.0597 32° Northeast 141 162 7,600  Level Boston Center
Thu 05:47:20 PM 44.3297 -71.0356 24° Northeast 136 157 7,600  Level Boston Center
Thu 05:48:20 PM 44.3589 -71.0144 27° Northeast 136 157 7,600  Level Boston Center
Thu 05:49:20 PM 44.3958 -70.9875 28° Northeast 136 157 7,600  Level Boston Center
Thu 05:50:20 PM 44.4269 -70.9633 29° Northeast 136 157 7,600  Level Boston Center
Thu 05:51:20 PM 44.4600 -70.9392 28° Northeast 136 157 7,600  Level Boston Center
Thu 05:52:20 PM 44.4908 -70.9122 32° Northeast 136 157 7,600  Level Boston Center
Thu 05:53:20 PM 44.5239 -70.8881 28° Northeast 136 157 7,600  Level Boston Center
Thu 05:54:20 PM 44.5547 -70.8642 29° Northeast 131 151 7,600  Level Boston Center
Thu 05:55:20 PM 44.5856 -70.8428 26° Northeast 131 151 7,600  Level Boston Center
Thu 05:56:20 PM 44.6144 -70.8069 41° Northeast 131 151 7,600  Level Boston Center
Thu 05:57:20 PM 44.6453 -70.7769 35° Northeast 131 151 7,600 50 Level Boston Center
Thu 05:58:20 PM 44.6761 -70.7469 35° Northeast 125 144 7,700 50 Climbing Boston Center
Thu 05:59:20 PM 44.7047 -70.7197 34° Northeast 125 144 7,700  Level Boston Center
Thu 06:00:32 PM 44.7375 -70.6867 36° Northeast 125 144 7,700  Level Boston Center
Thu 06:01:32 PM 44.7767 -70.6506 33° Northeast 125 144 7,700  Level Boston Center
Thu 06:02:44 PM 44.8075 -70.6203 35° Northeast 125 144 7,700  Level Boston Center
Thu 06:03:44 PM 44.8525 -70.5808 32° Northeast 130 150 7,700  Level Boston Center
Thu 06:04:44 PM 44.8833 -70.5533 32° Northeast 130 150 7,700  Level Boston Center
Thu 06:05:44 PM 44.9161 -70.5200 36° Northeast 130 150 7,700  Level Boston Center
Thu 06:06:44 PM 44.9492 -70.4956 28° Northeast 130 150 7,700  Level Boston Center
Thu 06:07:44 PM 44.9819 -70.4653 33° Northeast 130 150 7,700  Level Boston Center
Thu 06:08:44 PM 45.0147 -70.4347 33° Northeast 135 155 7,700  Level Boston Center
Thu 06:09:44 PM 45.0456 -70.4042 35° Northeast 135 155 7,700  Level Boston Center
Thu 06:10:44 PM 45.0722 -70.3797 33° Northeast 135 155 7,700  Level Boston Center
Thu 06:11:44 PM 45.1131 -70.3461 30° Northeast 135 155 7,700  Level Boston Center
Thu 06:12:56 PM 45.1439 -70.3183 32° Northeast 135 155 7,700  Level Boston Center
Thu 06:13:56 PM 45.1850 -70.2817 32° Northeast 135 155 7,700  Level Boston Center
Thu 06:14:56 PM 45.2156 -70.2508 35° Northeast 135 155 7,700  Level Boston Center
Thu 06:15:56 PM 45.2483 -70.2231 31° Northeast 135 155 7,700  Level Boston Center
Thu 06:16:56 PM 45.2708 -70.2044 30° Northeast 135 155 7,700  Level Boston Center
Thu 06:17:56 PM 45.3100 -70.1706 31° Northeast 135 155 7,700  Level Boston Center
Thu 06:18:56 PM 45.3428 -70.1428 31° Northeast 135 155 7,700 -300 Level Boston Center
Thu 06:19:56 PM 45.3817 -70.1117 29° Northeast 140 161 7,100 -300 Descending Boston Center
Thu 06:20:56 PM 45.4164 -70.0806 32° Northeast 140 161 7,100  Level Boston Center
Thu 06:21:56 PM 45.4553 -70.0525 27° Northeast 140 161 7,100  Level Boston Center
Thu 06:22:56 PM 45.4903 -70.0244 29° Northeast 140 161 7,100  Level Boston Center
Thu 06:23:56 PM 45.5250 -69.9933 32° Northeast 140 161 7,100  Level Boston Center
Thu 06:24:56 PM 45.5578 -69.9653 31° Northeast 140 161 7,100  Level Boston Center
Thu 06:25:56 PM 45.5883 -69.9342 35° Northeast 140 161 7,100  Level Boston Center
Thu 06:26:56 PM 45.6211 -69.9061 31° Northeast 140 161 7,100  Level Boston Center
Thu 06:27:56 PM 45.6475 -69.8811 34° Northeast 140 161 7,100  Level Boston Center
Thu 06:28:56 PM 45.6842 -69.8408 37° Northeast 140 161 7,100  Level Boston Center
Thu 06:29:56 PM 45.7169 -69.8125 31° Northeast 140 161 7,100  Level Boston Center
Thu 06:30:56 PM 45.7514 -69.7814 32° Northeast 140 161 7,100  Level Boston Center
Thu 06:31:56 PM 45.7842 -69.7531 31° Northeast 135 155 7,100 -250 Level Boston Center
Thu 06:32:56 PM 45.8108 -69.7308 30° Northeast 135 155 6,600 -750 Descending Boston Center
Thu 06:33:56 PM 45.8578 -69.6900 31° Northeast 141 162 5,600 -500 Descending Boston Center
Thu 06:34:56 PM 45.8922 -69.6583 33° Northeast 147 169 5,600  Level Boston Center
Thu 06:35:56 PM 45.9269 -69.6269 32° Northeast 142 163 5,600  Level Boston Center
Thu 06:36:56 PM 45.9617 -69.5953 32° Northeast 137 158 5,600  Level Boston Center
Thu 06:37:56 PM 45.9964 -69.5697 27° Northeast 137 158 5,600  Level Boston Center
Thu 06:38:56 PM 46.0331 -69.5381 31° Northeast 137 158 5,600  Level Boston Center
Thu 06:39:56 PM 46.0678 -69.5033 35° Northeast 142 163 5,600  Level Boston Center
Thu 06:41:08 PM 46.1044 -69.4744 29° Northeast 142 163 5,600  Level Boston Center
Thu 06:42:08 PM 46.1453 -69.4394 31° Northeast 136 157 5,600  Level Boston Center
Thu 06:43:08 PM 46.1778 -69.4106 32° Northeast 136 157 5,600  Level Boston Center
Thu 06:44:08 PM 46.2103 -69.3819 31° Northeast 136 157 5,600  Level Boston Center
Thu 06:45:08 PM 46.2450 -69.3531 30° Northeast 136 157 5,600  Level Boston Center
Thu 06:46:20 PM 46.2775 -69.3181 37° Northeast 136 157 5,600  Level Boston Center
Thu 06:47:20 PM 46.3161 -69.2861 30° Northeast 136 157 5,600  Level Boston Center
Thu 06:48:20 PM 46.3486 -69.2569 32° Northeast 136 157 5,600  Level Boston Center
Thu 06:49:20 PM 46.3811 -69.2253 34° Northeast 136 157 5,600  Level Boston Center
Thu 06:50:20 PM 46.4114 -69.1903 39° Northeast 136 157 5,600  Level Boston Center
Thu 06:51:20 PM 46.4439 -69.1614 31° Northeast 136 157 5,600  Level Boston Center
Thu 06:52:20 PM 46.4783 -69.1292 33° Northeast 136 157 5,600  Level Boston Center
Thu 06:53:20 PM 46.5047 -69.1036 34° Northeast 136 157 5,600  Level Boston Center
Thu 06:54:20 PM 46.5408 -69.0622 38° Northeast 136 157 5,600  Level Boston Center
Thu 06:55:20 PM 46.5733 -69.0331 32° Northeast 136 157 5,600  Level Boston Center
Thu 06:56:20 PM 46.6078 -68.9978 35° Northeast 136 157 5,600  Level Boston Center
Thu 06:57:20 PM 46.6400 -68.9625 37° Northeast 136 157 5,600  Level Boston Center
Thu 06:58:20 PM 46.6703 -68.9303 36° Northeast 136 157 5,600  Level Boston Center
Thu 06:59:20 PM 46.7047 -68.8978 33° Northeast 136 157 5,600  Level Boston Center
Thu 07:00:20 PM 46.7372 -68.8656 34° Northeast 136 157 5,600  Level Boston Center
Thu 07:01:20 PM 46.7694 -68.8331 35° Northeast 136 157 5,600  Level Boston Center
Thu 07:02:20 PM 46.8039 -68.8006 33° Northeast 136 157 5,600  Level Boston Center
Thu 07:03:20 PM 46.8361 -68.7681 35° Northeast 136 157 5,600  Level Boston Center
Thu 07:04:20 PM 46.8703 -68.7325 35° Northeast 136 157 5,600  Level Boston Center
Thu 07:05:20 PM 46.9028 -68.7031 32° Northeast 136 157 5,600  Level Boston Center
Thu 07:06:20 PM 46.9369 -68.6672 36° Northeast 136 157 5,600  Level Boston Center
Thu 07:07:20 PM 46.9631 -68.6381 37° Northeast 136 157 5,600  Level Boston Center
Thu 07:08:20 PM 47.0014 -68.5958 37° Northeast 141 162 5,600  Level Boston Center
Thu 07:09:20 PM 47.0333 -68.5572 39° Northeast 141 162 5,600 1,450 Level Boston Center
Thu 07:10:20 PM 47.0653 -68.5183 40° Northeast 147 169 8,500 -1,150 Climbing Boston Center
Thu 07:11:20 PM 47.0975 -68.4794 39° Northeast 147 169 3,300 -2,950 Descending Boston Center
Thu 07:12:20 PM 47.1275 -68.4469 36° Northeast 147 169 2,600 -700 Descending Boston Center

Login

Don't have an account? Register now (free) for customized features, flight alerts, and more!